Time;durP1;ratioP1;P1;durP2;ratioP2;P2;SDS_P1;SDS_P2;PMS_P1;PMS_P2;Temp;Humidity;BMP_temperature;BMP_pressure;BME280_temperature;BME280_humidity;BME280_pressure;Samples;Min_cycle;Max_cycle;Signal;HPM_P1;HPM_P2
2023/08/14 00:01:05;;;;;;;4.00;3.70;;;;;;;25.67;62.83;102089.98;107033;1270;22531;-48
2023/08/14 00:03:32;;;;;;;5.10;4.30;;;;;;;25.68;63.08;102090.64;107131;1257;25488;-49
2023/08/14 00:05:59;;;;;;;5.30;4.40;;;;;;;25.70;63.42;102089.61;107180;1257;25337;-49
2023/08/14 00:08:27;;;;;;;4.80;4.40;;;;;;;25.72;63.66;102089.45;107113;1250;25481;-49
2023/08/14 00:10:54;;;;;;;5.60;4.30;;;;;;;25.74;63.55;102091.99;107127;1267;25363;-49
2023/08/14 00:13:21;;;;;;;5.30;4.30;;;;;;;25.76;63.52;102099.34;107125;1257;25420;-49
2023/08/14 00:15:48;;;;;;;4.60;3.70;;;;;;;25.79;63.65;102099.70;107147;1254;25379;-49
2023/08/14 00:18:16;;;;;;;8.00;4.00;;;;;;;25.81;63.59;102106.87;107066;1260;25392;-50
2023/08/14 00:20:46;;;;;;;4.80;4.10;;;;;;;25.80;61.83;102112.80;107058;1263;25343;-49
2023/08/14 00:23:13;;;;;;;4.10;3.50;;;;;;;25.77;59.97;102109.58;107037;1266;25355;-49
2023/08/14 00:25:40;;;;;;;4.00;3.40;;;;;;;25.74;57.66;102118.00;107083;1257;25343;-49
2023/08/14 00:28:07;;;;;;;3.50;3.20;;;;;;;25.70;56.51;102115.05;107098;1267;25570;-49
2023/08/14 00:30:34;;;;;;;5.60;3.60;;;;;;;25.66;55.14;102113.54;107242;1257;25449;-49
2023/08/14 00:33:01;;;;;;;6.20;3.70;;;;;;;25.60;54.59;102114.77;106768;1257;414960;-48
2023/08/14 00:35:29;;;;;;;4.50;3.50;;;;;;;25.56;54.57;102116.80;107036;1260;25340;-49
2023/08/14 00:37:56;;;;;;;4.70;3.70;;;;;;;25.51;54.79;102115.16;106994;1259;25478;-49
2023/08/14 00:40:23;;;;;;;4.20;3.90;;;;;;;25.47;54.89;102116.69;106873;1259;25337;-51
2023/08/14 00:42:51;;;;;;;4.50;4.00;;;;;;;25.42;54.78;102119.11;107056;1260;25334;-50
2023/08/14 00:45:17;;;;;;;5.50;4.00;;;;;;;25.38;54.39;102117.55;106746;1260;25309;-50
2023/08/14 00:47:45;;;;;;;5.10;4.40;;;;;;;25.36;54.37;102115.92;106925;1263;22653;-49
2023/08/14 00:50:13;;;;;;;5.20;4.20;;;;;;;25.37;54.51;102117.67;106880;1257;22534;-50
2023/08/14 00:52:42;;;;;;;5.70;4.30;;;;;;;25.37;54.53;102114.81;107083;1266;25359;-51
2023/08/14 00:55:15;;;;;;;4.60;3.90;;;;;;;25.36;54.58;102114.49;107162;1256;24227;-51
2023/08/14 00:57:42;;;;;;;6.30;4.20;;;;;;;25.35;54.28;102108.73;106931;1266;25337;-49
2023/08/14 01:00:11;;;;;;;4.20;3.80;;;;;;;25.32;54.09;102104.66;107128;1250;25507;-49
2023/08/14 01:02:38;;;;;;;5.50;4.20;;;;;;;25.30;54.14;102102.81;106844;1263;22533;-49
2023/08/14 01:05:06;;;;;;;4.00;3.70;;;;;;;25.30;53.97;102101.76;107209;1259;25372;-49
2023/08/14 01:07:33;;;;;;;7.40;4.70;;;;;;;25.32;54.10;102100.58;107052;1267;25476;-49
2023/08/14 01:10:02;;;;;;;5.30;3.90;;;;;;;25.34;53.96;102097.22;107126;1261;25423;-49
2023/08/14 01:12:46;;;;;;;4.10;3.70;;;;;;;25.35;54.10;102097.88;107043;1257;25359;-49
2023/08/14 01:15:20;;;;;;;4.90;3.90;;;;;;;25.35;54.27;102098.23;107102;1257;25321;-49
2023/08/14 01:17:50;;;;;;;5.30;3.90;;;;;;;25.35;54.35;102102.64;107097;1257;23887;-49
2023/08/14 01:20:18;;;;;;;5.70;4.00;;;;;;;25.36;54.56;102103.87;107089;1263;25348;-49
2023/08/14 01:23:05;;;;;;;5.40;4.00;;;;;;;25.35;54.51;102104.08;106952;1266;25363;-49
2023/08/14 01:25:33;;;;;;;6.50;4.00;;;;;;;25.37;54.68;102104.30;107111;1263;25343;-49
2023/08/14 01:28:01;;;;;;;4.30;3.50;;;;;;;25.38;54.51;102102.29;107064;1257;25412;-49
2023/08/14 01:30:28;;;;;;;6.30;4.00;;;;;;;25.40;54.11;102107.34;107160;1256;22581;-49
2023/08/14 01:32:55;;;;;;;3.70;3.40;;;;;;;25.40;54.12;102104.16;107092;1257;25312;-49
2023/08/14 01:35:25;;;;;;;4.80;3.60;;;;;;;25.41;54.06;102103.58;106894;1271;25321;-49
2023/08/14 01:38:07;;;;;;;4.60;3.60;;;;;;;25.46;53.92;102100.97;106794;1269;25321;-49
2023/08/14 01:40:43;;;;;;;6.60;4.10;;;;;;;25.45;53.85;102101.01;107063;1267;25356;-49
2023/08/14 01:43:14;;;;;;;5.10;3.50;;;;;;;25.44;53.98;102100.54;107176;1260;25545;-49
2023/08/14 01:45:41;;;;;;;3.90;3.50;;;;;;;25.45;54.15;102105.08;107173;1257;24214;-49
2023/08/14 01:48:08;;;;;;;4.60;4.10;;;;;;;25.47;54.21;102107.97;107189;1263;23285;-49
2023/08/14 01:50:35;;;;;;;4.10;3.50;;;;;;;25.50;53.93;102106.39;106808;1260;25337;-49
2023/08/14 01:53:03;;;;;;;5.20;4.20;;;;;;;25.51;53.36;102107.38;106802;1260;25311;-49
2023/08/14 01:55:30;;;;;;;4.70;3.90;;;;;;;25.52;53.00;102109.27;106841;1274;25468;-49
2023/08/14 01:57:57;;;;;;;5.10;4.40;;;;;;;25.53;52.36;102109.02;107141;1257;25324;-49
2023/08/14 02:00:26;;;;;;;5.30;4.30;;;;;;;25.52;51.94;102111.72;107147;1269;25471;-48
2023/08/14 02:02:54;;;;;;;5.30;3.60;;;;;;;25.52;51.67;102113.00;107068;1256;25331;-49
2023/08/14 02:05:21;;;;;;;3.90;3.50;;;;;;;25.52;51.72;102113.90;107051;1264;25346;-49
2023/08/14 02:07:48;;;;;;;5.10;3.60;;;;;;;25.51;51.98;102113.44;107071;1267;25347;-49
2023/08/14 02:10:15;;;;;;;5.90;4.10;;;;;;;25.49;52.01;102115.50;107246;1254;25439;-49
2023/08/14 02:12:42;;;;;;;8.20;6.40;;;;;;;25.47;52.05;102114.71;107154;1257;22938;-49
2023/08/14 02:15:09;;;;;;;14.10;10.80;;;;;;;25.48;52.22;102113.27;107130;1260;25132;-49
2023/08/14 02:17:36;;;;;;;24.60;19.00;;;;;;;25.48;52.28;102113.95;107138;1263;24387;-49
2023/08/14 02:20:04;;;;;;;45.30;31.40;;;;;;;25.48;51.85;102113.22;107183;1269;25405;-49
2023/08/14 02:22:31;;;;;;;55.90;39.80;;;;;;;25.48;51.50;102114.99;107182;1254;22524;-49
2023/08/14 02:24:58;;;;;;;58.70;41.20;;;;;;;25.48;51.23;102109.83;107165;1265;25478;-49
2023/08/14 02:27:25;;;;;;;58.80;41.10;;;;;;;25.48;51.22;102113.23;107140;1263;25356;-49
2023/08/14 02:29:53;;;;;;;65.30;40.80;;;;;;;25.48;51.12;102115.05;107063;1264;25449;-49
2023/08/14 02:32:20;;;;;;;57.20;37.10;;;;;;;25.47;51.18;102119.34;106944;1258;25426;-49
2023/08/14 02:34:48;;;;;;;50.40;31.60;;;;;;;25.44;51.50;102117.20;107074;1257;25347;-49
2023/08/14 02:37:17;;;;;;;46.70;29.20;;;;;;;25.42;51.61;102118.75;106998;1256;25261;-49
2023/08/14 02:39:44;;;;;;;51.30;30.90;;;;;;;25.41;51.71;102112.95;106845;1267;25430;-49
2023/08/14 02:42:11;;;;;;;48.00;34.20;;;;;;;25.41;51.69;102119.16;106982;1267;25331;-48
2023/08/14 02:44:38;;;;;;;56.90;35.30;;;;;;;25.42;51.70;102117.52;106857;1260;25411;-49
2023/08/14 02:47:05;;;;;;;56.70;33.60;;;;;;;25.41;51.78;102115.45;106935;1267;25398;-49
2023/08/14 02:49:33;;;;;;;46.20;30.10;;;;;;;25.42;51.92;102117.03;106984;1266;24529;-49
2023/08/14 02:52:00;;;;;;;44.50;27.00;;;;;;;25.41;51.97;102116.70;106977;1265;25488;-49
2023/08/14 02:54:27;;;;;;;35.40;23.10;;;;;;;25.39;51.80;102117.69;107021;1267;25475;-49
2023/08/14 02:56:54;;;;;;;28.10;19.10;;;;;;;25.38;51.58;102120.40;106857;1259;25474;-49
2023/08/14 02:59:22;;;;;;;23.70;16.30;;;;;;;25.37;51.60;102119.08;107022;1266;25362;-49
2023/08/14 03:01:49;;;;;;;22.90;15.70;;;;;;;25.36;51.56;102119.99;107030;1266;25323;-49
2023/08/14 03:04:17;;;;;;;24.80;15.70;;;;;;;25.36;51.48;102121.65;106826;1267;25321;-49
2023/08/14 03:06:44;;;;;;;21.20;13.50;;;;;;;25.34;51.44;102122.80;107086;1253;22993;-49
2023/08/14 03:09:11;;;;;;;16.60;13.10;;;;;;;25.33;51.27;102123.23;106816;1269;25322;-49
2023/08/14 03:11:39;;;;;;;22.10;13.00;;;;;;;25.31;51.24;102123.52;107147;1264;25471;-48
2023/08/14 03:14:06;;;;;;;18.20;14.00;;;;;;;25.29;51.22;102120.27;107236;1263;25389;-48
2023/08/14 03:16:33;;;;;;;19.60;13.60;;;;;;;25.28;51.27;102120.88;106858;1259;24234;-49
2023/08/14 03:19:00;;;;;;;21.90;14.90;;;;;;;25.26;51.32;102118.14;106838;1264;25321;-49
2023/08/14 03:21:27;;;;;;;24.00;16.20;;;;;;;25.26;51.12;102119.07;107158;1264;25356;-49
2023/08/14 03:23:54;;;;;;;20.80;16.90;;;;;;;25.25;51.00;102120.52;107091;1257;22634;-49
2023/08/14 03:26:21;;;;;;;27.40;17.40;;;;;;;25.25;50.71;102121.62;107168;1267;25346;-49
2023/08/14 03:28:48;;;;;;;26.10;17.10;;;;;;;25.25;50.70;102119.31;107104;1270;25465;-49
2023/08/14 03:31:15;;;;;;;20.30;15.60;;;;;;;25.25;50.78;102120.15;107106;1263;25323;-49
2023/08/14 03:33:43;;;;;;;20.30;14.00;;;;;;;25.26;50.84;102117.99;107198;1258;25405;-49
2023/08/14 03:36:10;;;;;;;24.00;14.30;;;;;;;25.26;50.76;102117.48;106873;1270;25400;-49
2023/08/14 03:38:37;;;;;;;15.90;11.40;;;;;;;25.25;50.82;102117.70;107149;1271;25484;-49
2023/08/14 03:41:05;;;;;;;15.00;11.00;;;;;;;25.24;50.87;102120.59;107086;1263;25356;-49
2023/08/14 03:43:32;;;;;;;14.90;9.70;;;;;;;25.25;51.15;102119.83;107095;1270;25360;-49
2023/08/14 03:45:59;;;;;;;15.30;8.80;;;;;;;25.25;51.43;102116.83;107184;1269;25478;-49
2023/08/14 03:48:26;;;;;;;9.70;8.20;;;;;;;25.25;51.65;102116.61;106851;1267;25340;-49
2023/08/14 03:50:53;;;;;;;7.60;6.40;;;;;;;25.25;51.73;102115.73;107126;1257;25366;-49
2023/08/14 03:53:20;;;;;;;7.80;6.80;;;;;;;25.29;51.78;102118.36;107048;1256;24299;-50
2023/08/14 03:55:48;;;;;;;8.50;6.40;;;;;;;25.30;51.79;102120.04;107209;1263;23118;-49
2023/08/14 03:58:15;;;;;;;7.80;5.90;;;;;;;25.32;51.98;102119.19;107068;1257;25341;-49
2023/08/14 04:00:42;;;;;;;8.10;5.30;;;;;;;25.35;52.04;102120.98;107099;1257;25353;-49
2023/08/14 04:03:09;;;;;;;10.30;5.70;;;;;;;25.38;52.02;102124.52;107023;1272;22543;-49
2023/08/14 04:05:38;;;;;;;9.80;5.80;;;;;;;25.41;51.89;102123.65;107148;1267;25331;-49
2023/08/14 04:08:09;;;;;;;7.50;5.40;;;;;;;25.44;51.80;102123.10;106938;1260;22543;-49
2023/08/14 04:10:37;;;;;;;8.70;5.80;;;;;;;25.46;51.90;102122.39;107230;1257;25359;-49
2023/08/14 04:13:04;;;;;;;6.80;5.60;;;;;;;25.49;51.78;102122.98;107078;1263;25350;-49
2023/08/14 04:15:31;;;;;;;9.50;5.80;;;;;;;25.51;51.93;102124.77;106874;1273;25388;-49
2023/08/14 04:17:58;;;;;;;6.10;5.50;;;;;;;25.53;52.03;102126.45;107092;1265;25439;-50
2023/08/14 04:20:25;;;;;;;5.50;5.00;;;;;;;25.55;52.23;102129.17;107071;1267;24183;-49
2023/08/14 04:22:52;;;;;;;5.40;4.90;;;;;;;25.56;52.35;102129.60;107052;1264;25382;-49
2023/08/14 04:25:20;;;;;;;7.50;5.60;;;;;;;25.58;52.24;102128.80;107094;1269;25327;-51
2023/08/14 04:27:47;;;;;;;5.70;4.90;;;;;;;25.60;52.14;102127.98;106853;1255;25395;-51
2023/08/14 04:30:14;;;;;;;6.10;4.80;;;;;;;25.62;52.09;102130.83;106673;1274;25350;-50
2023/08/14 04:32:41;;;;;;;6.00;5.40;;;;;;;25.63;51.82;102129.69;106851;1266;25356;-50
2023/08/14 04:35:09;;;;;;;5.90;4.70;;;;;;;25.66;51.82;102133.05;106941;1269;25321;-49
2023/08/14 04:37:37;;;;;;;5.30;4.70;;;;;;;25.69;51.66;102130.73;107039;1263;25340;-51
2023/08/14 04:40:05;;;;;;;8.10;5.50;;;;;;;25.72;51.78;102130.54;106939;1275;25359;-50
2023/08/14 04:42:33;;;;;;;10.30;8.30;;;;;;;25.74;51.56;102128.45;106910;1263;24204;-51
2023/08/14 04:45:00;;;;;;;6.80;6.10;;;;;;;25.76;51.57;102127.79;107219;1270;24222;-51
2023/08/14 04:47:27;;;;;;;6.80;6.10;;;;;;;25.78;51.57;102132.86;107080;1274;25346;-50
2023/08/14 04:49:55;;;;;;;6.20;5.60;;;;;;;25.80;51.28;102132.19;107156;1272;22659;-49
2023/08/14 04:52:22;;;;;;;8.40;5.90;;;;;;;25.80;51.13;102134.98;107147;1267;25399;-49
2023/08/14 04:54:51;;;;;;;7.10;5.60;;;;;;;25.80;51.25;102133.73;107193;1257;25331;-49
2023/08/14 04:57:19;;;;;;;5.60;4.90;;;;;;;25.82;50.95;102136.31;106912;1266;25408;-49
2023/08/14 04:59:46;;;;;;;5.70;5.10;;;;;;;25.82;50.65;102137.02;107084;1267;24239;-49
2023/08/14 05:02:13;;;;;;;7.10;5.40;;;;;;;25.83;50.37;102138.38;107145;1266;25462;-49
2023/08/14 05:04:40;;;;;;;11.90;5.30;;;;;;;25.83;50.21;102140.16;106820;1267;25359;-49
2023/08/14 05:07:07;;;;;;;7.50;5.50;;;;;;;25.84;50.32;102138.67;106903;1260;25358;-49
2023/08/14 05:09:34;;;;;;;6.70;6.00;;;;;;;25.86;50.15;102141.27;107180;1267;25320;-49
2023/08/14 05:12:02;;;;;;;6.30;5.50;;;;;;;25.88;50.12;102141.85;107128;1267;25347;-50
2023/08/14 05:14:29;;;;;;;8.20;5.80;;;;;;;25.90;50.40;102146.10;106443;1273;22533;-49
2023/08/14 05:16:56;;;;;;;6.80;5.60;;;;;;;25.92;50.26;102143.69;107135;1254;25357;-49
2023/08/14 05:19:23;;;;;;;5.90;5.30;;;;;;;25.94;50.30;102149.23;107110;1251;25327;-49
2023/08/14 05:21:51;;;;;;;7.20;5.70;;;;;;;25.97;50.47;102151.22;107247;1254;25356;-50
2023/08/14 05:24:18;;;;;;;6.40;5.80;;;;;;;25.99;50.39;102155.66;107155;1252;22521;-49
2023/08/14 05:26:45;;;;;;;6.10;5.20;;;;;;;26.03;50.43;102154.88;106917;1257;25337;-49
2023/08/14 05:29:12;;;;;;;7.00;5.60;;;;;;;26.07;50.60;102158.18;106524;1273;25321;-49
2023/08/14 05:31:39;;;;;;;6.00;5.30;;;;;;;26.12;50.68;102158.26;106945;1267;25384;-49
2023/08/14 05:34:06;;;;;;;7.50;5.50;;;;;;;26.17;50.84;102161.51;106932;1267;25421;-49
2023/08/14 05:36:34;;;;;;;5.70;5.20;;;;;;;26.22;50.67;102164.15;106964;1255;22743;-49
2023/08/14 05:39:01;;;;;;;6.30;5.30;;;;;;;26.29;50.71;102164.98;106549;1263;25356;-49
2023/08/14 05:41:28;;;;;;;5.80;5.30;;;;;;;26.39;50.70;102165.00;106702;1268;25491;-49
2023/08/14 05:43:55;;;;;;;6.80;5.70;;;;;;;26.52;50.68;102167.66;107216;1251;25321;-49
2023/08/14 05:46:24;;;;;;;5.60;5.00;;;;;;;26.67;50.32;102168.26;107106;1263;25408;-49
2023/08/14 05:48:51;;;;;;;6.30;5.30;;;;;;;26.85;49.84;102169.77;107144;1264;25343;-49
2023/08/14 05:51:18;;;;;;;6.80;5.60;;;;;;;27.02;49.88;102172.52;107169;1266;25308;-49
2023/08/14 05:53:45;;;;;;;5.60;5.10;;;;;;;27.17;49.57;102172.30;107179;1267;25318;-49
2023/08/14 05:56:12;;;;;;;6.00;5.50;;;;;;;27.33;49.62;102170.50;107066;1264;22527;-49
2023/08/14 05:58:39;;;;;;;5.30;4.80;;;;;;;27.46;49.04;102169.42;106834;1274;25341;-48
2023/08/14 06:01:06;;;;;;;6.50;5.30;;;;;;;27.60;48.48;102170.45;107093;1267;25395;-50
2023/08/14 06:03:34;;;;;;;7.90;6.20;;;;;;;27.71;47.94;102172.98;107063;1261;25349;-49
2023/08/14 06:06:11;;;;;;;7.00;5.40;;;;;;;27.82;47.38;102173.27;107072;1251;22683;-49
2023/08/14 06:08:38;;;;;;;6.60;5.70;;;;;;;27.93;47.42;102173.75;107145;1257;25340;-49
2023/08/14 06:11:05;;;;;;;9.50;5.50;;;;;;;28.03;47.34;102175.34;106767;1269;25365;-49
2023/08/14 06:13:32;;;;;;;6.10;5.40;;;;;;;28.14;47.11;102174.00;107211;1257;25340;-49
2023/08/14 06:16:00;;;;;;;6.80;5.00;;;;;;;28.21;46.50;102176.70;107227;1264;24187;-49
2023/08/14 06:18:27;;;;;;;5.80;5.20;;;;;;;28.25;46.27;102179.09;107140;1264;25421;-49
2023/08/14 06:20:54;;;;;;;6.30;5.70;;;;;;;28.28;46.23;102178.52;107027;1263;25340;-49
2023/08/14 06:23:21;;;;;;;8.40;5.70;;;;;;;28.30;46.11;102182.48;106823;1258;25344;-49
2023/08/14 06:25:49;;;;;;;6.10;5.40;;;;;;;28.31;46.52;102183.77;107117;1258;25319;-49
2023/08/14 06:28:16;;;;;;;6.30;5.70;;;;;;;28.32;46.58;102183.89;107117;1264;25398;-49
2023/08/14 06:30:43;;;;;;;7.00;5.80;;;;;;;28.33;46.89;102189.36;106816;1273;25347;-49
2023/08/14 06:33:10;;;;;;;6.00;5.40;;;;;;;28.34;47.23;102188.92;107150;1257;25545;-49
2023/08/14 06:35:37;;;;;;;6.50;4.70;;;;;;;28.35;46.75;102194.92;107131;1251;25337;-49
2023/08/14 06:38:04;;;;;;;5.30;4.70;;;;;;;28.37;45.95;102195.13;107108;1264;25433;-49
2023/08/14 06:40:31;;;;;;;5.40;4.90;;;;;;;28.42;45.73;102199.41;106918;1269;25331;-49
2023/08/14 06:42:59;;;;;;;5.50;4.40;;;;;;;28.48;45.61;102198.05;107119;1256;25392;-48
2023/08/14 06:45:26;;;;;;;6.20;4.90;;;;;;;28.57;45.59;102203.13;106881;1264;25573;-48
2023/08/14 06:47:53;;;;;;;6.20;4.90;;;;;;;28.62;45.46;102203.60;106819;1258;25346;-48
2023/08/14 06:50:20;;;;;;;7.10;5.00;;;;;;;28.66;45.41;102204.02;106844;1260;25568;-49
2023/08/14 06:52:47;;;;;;;6.00;4.50;;;;;;;28.68;44.96;102208.19;107111;1264;25465;-48
2023/08/14 06:55:14;;;;;;;5.10;4.70;;;;;;;28.69;44.40;102212.91;107066;1254;25280;-49
2023/08/14 06:57:41;;;;;;;4.80;4.40;;;;;;;28.68;44.25;102213.15;107106;1251;25477;-49
2023/08/14 07:00:12;;;;;;;6.60;4.90;;;;;;;28.68;44.58;102215.45;107024;1251;25359;-49
2023/08/14 07:02:40;;;;;;;;;;;;;;;28.70;45.02;102219.45;106826;1267;25439;-49
2023/08/14 07:05:09;;;;;;;5.40;4.60;;;;;;;28.70;45.20;102220.01;107182;1263;25331;-49
2023/08/14 07:07:38;;;;;;;8.00;5.50;;;;;;;28.67;45.48;102221.80;107132;1263;25328;-49
2023/08/14 07:10:06;;;;;;;5.10;4.60;;;;;;;28.65;46.00;102227.35;106923;1267;25350;-49
2023/08/14 07:12:33;;;;;;;7.30;4.60;;;;;;;28.66;46.56;102228.12;106959;1269;25395;-48
2023/08/14 07:15:00;;;;;;;7.70;5.20;;;;;;;28.75;46.88;102230.45;106911;1267;25341;-49
2023/08/14 07:17:28;;;;;;;6.50;5.10;;;;;;;28.92;47.08;102229.33;107058;1251;25505;-50
2023/08/14 07:19:55;;;;;;;6.10;5.10;;;;;;;29.07;46.88;102229.83;106896;1273;25356;-49
2023/08/14 07:22:23;;;;;;;5.40;4.80;;;;;;;29.23;46.95;102230.23;107171;1264;25340;-49
2023/08/14 07:24:50;;;;;;;5.70;5.20;;;;;;;29.45;47.14;102230.45;107163;1257;25334;-49
2023/08/14 07:27:17;;;;;;;4.90;4.50;;;;;;;29.74;46.87;102228.55;106863;1260;25366;-49
2023/08/14 07:29:44;;;;;;;5.40;4.60;;;;;;;30.02;46.54;102230.93;107001;1261;25346;-49
2023/08/14 07:32:11;;;;;;;4.90;4.40;;;;;;;30.28;46.31;102230.57;106864;1267;25337;-49
2023/08/14 07:34:38;;;;;;;4.80;4.40;;;;;;;30.51;45.65;102227.64;107167;1258;25341;-49
2023/08/14 07:37:05;;;;;;;8.30;5.40;;;;;;;30.61;45.23;102231.13;107083;1251;22530;-49
2023/08/14 07:39:32;;;;;;;5.10;4.70;;;;;;;30.62;45.10;102233.02;107163;1262;25331;-49
2023/08/14 07:41:59;;;;;;;6.30;4.90;;;;;;;30.58;45.46;102231.20;107123;1267;25322;-49
2023/08/14 07:44:26;;;;;;;5.70;5.00;;;;;;;30.53;45.47;102233.57;107111;1255;25341;-49
2023/08/14 07:46:53;;;;;;;6.90;5.30;;;;;;;30.47;45.79;102230.81;107054;1251;25430;-49
2023/08/14 07:49:20;;;;;;;5.40;4.90;;;;;;;30.42;46.00;102231.08;107162;1261;25318;-49
2023/08/14 07:51:47;;;;;;;6.10;4.80;;;;;;;30.39;45.86;102233.09;107167;1254;25319;-49
2023/08/14 07:54:14;;;;;;;5.60;5.10;;;;;;;30.33;45.60;102231.31;107115;1266;25331;-49
2023/08/14 07:56:41;;;;;;;6.00;5.10;;;;;;;30.17;45.65;102228.81;106886;1257;25309;-49
2023/08/14 07:59:12;;;;;;;5.80;5.20;;;;;;;30.04;46.59;102231.30;107065;1251;25340;-48
2023/08/14 08:01:41;;;;;;;7.00;5.10;;;;;;;29.97;47.06;102229.23;107261;1251;25274;-50
2023/08/14 08:04:08;;;;;;;4.90;4.50;;;;;;;29.92;47.55;102229.08;107046;1267;22582;-49
2023/08/14 08:06:35;;;;;;;7.10;4.70;;;;;;;29.84;47.72;102232.20;107163;1266;25350;-49
2023/08/14 08:09:11;;;;;;;5.10;4.60;;;;;;;29.76;47.86;102232.00;106924;1261;25398;-49
2023/08/14 08:11:38;;;;;;;5.70;5.20;;;;;;;29.70;48.30;102228.13;107173;1260;25449;-51
2023/08/14 08:14:06;;;;;;;5.40;4.90;;;;;;;29.66;48.65;102231.66;107146;1257;25503;-48
2023/08/14 08:16:35;;;;;;;5.80;5.20;;;;;;;29.60;48.90;102231.64;107069;1251;24365;-51
2023/08/14 08:19:04;;;;;;;5.60;5.10;;;;;;;29.54;49.22;102231.17;106857;1256;25397;-51
2023/08/14 08:21:32;;;;;;;5.50;4.80;;;;;;;29.52;49.58;102233.89;106706;1260;24234;-50
2023/08/14 08:23:59;;;;;;;6.10;5.50;;;;;;;29.54;49.77;102232.10;106682;1261;25335;-51
2023/08/14 08:26:26;;;;;;;5.70;5.20;;;;;;;29.58;49.80;102234.46;106985;1263;23897;-50
2023/08/14 08:28:53;;;;;;;7.50;5.10;;;;;;;29.64;49.60;102234.55;106711;1260;25047;-49
2023/08/14 08:31:20;;;;;;;7.00;5.50;;;;;;;29.67;49.50;102231.59;106648;1260;25331;-50
2023/08/14 08:33:47;;;;;;;5.60;5.10;;;;;;;29.69;49.64;102232.35;106722;1270;24195;-50
2023/08/14 08:36:17;;;;;;;11.20;5.80;;;;;;;29.72;49.72;102230.48;106786;1253;25379;-50
2023/08/14 08:38:45;;;;;;;6.60;5.80;;;;;;;29.74;50.19;102232.35;107094;1252;25485;-50
2023/08/14 08:41:13;;;;;;;7.60;5.30;;;;;;;29.75;50.19;102232.21;106961;1267;25346;-50
2023/08/14 08:43:41;;;;;;;5.20;4.70;;;;;;;29.75;50.16;102231.65;107056;1260;27431;-50
2023/08/14 08:46:09;;;;;;;6.70;6.00;;;;;;;29.80;50.21;102230.92;107093;1264;22525;-50
2023/08/14 08:48:37;;;;;;;6.30;5.30;;;;;;;29.86;50.06;102231.91;107126;1251;25402;-50
2023/08/14 08:51:06;;;;;;;7.20;4.90;;;;;;;29.89;50.07;102232.70;107097;1250;25399;-51
2023/08/14 08:53:34;;;;;;;5.30;4.80;;;;;;;29.90;49.94;102232.09;107082;1255;25384;-50
2023/08/14 08:56:01;;;;;;;6.20;5.00;;;;;;;29.91;50.19;102236.52;107038;1257;25340;-50
2023/08/14 08:58:28;;;;;;;5.50;5.00;;;;;;;29.95;50.43;102234.19;107066;1263;25339;-48
2023/08/14 09:00:55;;;;;;;5.90;5.30;;;;;;;30.02;50.45;102235.25;107027;1270;25322;-50
2023/08/14 09:03:22;;;;;;;6.90;5.50;;;;;;;30.06;50.44;102235.27;107094;1254;25386;-50
2023/08/14 09:05:51;;;;;;;6.40;5.80;;;;;;;30.11;50.56;102231.84;107192;1261;25356;-50
2023/08/14 09:08:18;;;;;;;6.10;5.60;;;;;;;30.11;50.43;102232.34;107086;1254;25420;-50
2023/08/14 09:10:47;;;;;;;6.30;5.70;;;;;;;30.12;50.65;102233.02;107163;1251;25449;-50
2023/08/14 09:13:14;;;;;;;5.60;5.20;;;;;;;30.14;50.51;102230.88;107029;1263;25321;-51
2023/08/14 09:15:43;;;;;;;10.40;6.60;;;;;;;30.14;50.26;102233.21;107079;1251;25322;-51
2023/08/14 09:18:10;;;;;;;8.00;5.90;;;;;;;30.13;50.38;102235.97;107159;1266;22509;-50
2023/08/14 09:20:39;;;;;;;6.10;5.40;;;;;;;30.15;50.37;102235.11;107030;1263;25331;-50
2023/08/14 09:23:10;;;;;;;5.90;5.30;;;;;;;30.18;50.08;102236.09;107229;1254;25460;-49
2023/08/14 09:25:38;;;;;;;5.90;5.40;;;;;;;30.20;50.04;102235.88;107066;1253;25359;-50
2023/08/14 09:28:07;;;;;;;6.10;5.60;;;;;;;30.22;49.95;102236.99;106768;1264;25517;-49
2023/08/14 09:30:36;;;;;;;6.10;5.50;;;;;;;30.24;49.97;102236.86;106886;1257;22663;-50
2023/08/14 09:33:07;;;;;;;6.60;5.90;;;;;;;30.26;50.12;102238.45;107087;1254;25226;-49
2023/08/14 09:35:35;;;;;;;6.70;5.90;;;;;;;30.28;49.65;102239.91;106914;1254;25716;-49
2023/08/14 09:38:03;;;;;;;7.30;5.30;;;;;;;30.30;49.78;102238.56;107061;1256;25407;-50
2023/08/14 09:40:31;;;;;;;8.40;5.50;;;;;;;30.31;49.81;102241.63;106728;1273;25328;-49
2023/08/14 09:42:58;;;;;;;8.00;5.70;;;;;;;30.30;50.10;102240.85;106914;1260;25372;-49
2023/08/14 09:45:27;;;;;;;7.10;5.60;;;;;;;30.28;50.11;102239.71;106919;1258;25355;-49
2023/08/14 09:48:00;;;;;;;6.60;5.90;;;;;;;30.31;50.36;102237.89;106778;1254;22589;-50
2023/08/14 09:50:28;;;;;;;8.10;5.40;;;;;;;30.36;49.96;102234.09;106704;1269;22529;-49
2023/08/14 09:52:56;;;;;;;6.40;5.80;;;;;;;30.42;50.02;102233.02;106801;1260;25343;-49
2023/08/14 09:55:24;;;;;;;6.50;5.90;;;;;;;30.48;49.74;102229.53;106884;1265;25303;-50
2023/08/14 09:57:51;;;;;;;6.60;6.00;;;;;;;30.50;49.72;102229.83;106869;1257;25402;-49
2023/08/14 10:00:18;;;;;;;6.30;5.70;;;;;;;30.52;49.76;102224.70;106719;1260;25325;-50
2023/08/14 10:02:46;;;;;;;6.50;6.00;;;;;;;30.56;49.20;102225.27;106670;1261;25399;-49
2023/08/14 10:05:18;;;;;;;6.00;5.40;;;;;;;30.60;49.22;102220.15;106842;1256;25404;-49
2023/08/14 10:07:45;;;;;;;6.70;5.70;;;;;;;30.64;48.73;102217.85;106798;1259;25508;-49
2023/08/14 10:10:13;;;;;;;6.60;6.00;;;;;;;30.68;48.61;102220.70;106376;1264;25401;-49
2023/08/14 10:12:49;;;;;;;6.20;5.60;;;;;;;30.74;48.62;102222.20;106659;1264;25440;-49
2023/08/14 10:15:17;;;;;;;8.60;6.20;;;;;;;30.80;48.53;102223.29;106669;1261;24363;-50
2023/08/14 10:17:56;;;;;;;5.90;5.30;;;;;;;30.82;48.42;102224.35;106719;1269;25331;-50
2023/08/14 10:20:23;;;;;;;5.70;5.20;;;;;;;30.84;48.67;102220.60;106631;1277;25229;-50
2023/08/14 10:22:52;;;;;;;6.10;5.50;;;;;;;30.87;48.37;102223.22;106747;1267;25491;-49
2023/08/14 10:25:22;;;;;;;5.80;5.30;;;;;;;30.92;48.27;102220.48;106797;1266;25325;-49
2023/08/14 10:27:50;;;;;;;6.20;5.60;;;;;;;30.95;48.18;102219.10;106824;1258;22595;-49
2023/08/14 10:30:20;;;;;;;7.20;5.60;;;;;;;30.97;48.18;102215.23;106890;1263;25349;-49
2023/08/14 10:32:47;;;;;;;6.70;5.80;;;;;;;30.98;48.28;102216.88;106820;1260;22527;-49
2023/08/14 10:35:14;;;;;;;6.00;5.50;;;;;;;31.03;48.04;102214.68;106715;1270;25573;-50
2023/08/14 10:37:42;;;;;;;6.00;5.30;;;;;;;31.08;47.98;102213.36;106793;1256;25519;-49
2023/08/14 10:40:19;;;;;;;;;;;;;;;31.09;47.67;102214.73;106896;1268;25295;-49
2023/08/14 10:42:47;;;;;;;6.10;5.50;;;;;;;31.08;47.51;102212.23;107022;1251;25337;-50
2023/08/14 10:45:18;;;;;;;8.30;6.00;;;;;;;31.07;47.77;102211.66;106852;1267;25468;-49
2023/08/14 10:47:45;;;;;;;;;;;;;;;31.06;47.73;102212.08;107136;1266;25334;-49
2023/08/14 10:50:18;;;;;;;6.30;5.80;;;;;;;31.06;47.46;102209.25;107185;1257;25398;-49
2023/08/14 10:52:48;;;;;;;6.50;5.80;;;;;;;31.04;47.04;102208.52;107129;1256;25318;-49
2023/08/14 10:55:17;;;;;;;6.50;5.90;;;;;;;31.03;47.27;102207.33;107074;1256;25471;-49
2023/08/14 10:57:45;;;;;;;6.10;5.60;;;;;;;31.04;46.91;102207.27;107137;1259;25459;-49
2023/08/14 11:00:23;;;;;;;7.60;5.70;;;;;;;31.07;46.49;102206.27;106979;1264;25322;-49
2023/08/14 11:02:52;;;;;;;5.90;5.40;;;;;;;31.12;46.44;102207.98;107066;1251;25356;-49
2023/08/14 11:05:19;;;;;;;5.70;5.20;;;;;;;31.15;46.71;102207.36;107137;1250;24391;-49
2023/08/14 11:07:58;;;;;;;6.40;5.50;;;;;;;31.18;46.91;102206.16;107129;1250;23854;-49
2023/08/14 11:10:25;;;;;;;6.50;5.60;;;;;;;31.22;47.46;102214.98;107154;1253;25408;-49
2023/08/14 11:12:55;;;;;;;6.30;5.70;;;;;;;31.27;47.52;102214.58;107009;1260;25334;-49
2023/08/14 11:15:22;;;;;;;6.90;6.20;;;;;;;31.30;47.57;102208.23;107096;1251;22993;-48
2023/08/14 11:17:49;;;;;;;6.40;5.90;;;;;;;31.32;47.38;102203.19;107043;1251;25319;-49